sensor_id;sensor_type;location;lat;lon;timestamp;pressure;altitude;pressure_sealevel;temperature;humidity
23339;BME280;11841;49.368;20.962;2023-03-01T00:01:21;96787.09;;;-3.61;77.90
23339;BME280;11841;49.368;20.962;2023-03-01T00:03:48;96795.81;;;-3.62;77.84
23339;BME280;11841;49.368;20.962;2023-03-01T00:06:15;96797.66;;;-3.64;78.30
23339;BME280;11841;49.368;20.962;2023-03-01T00:08:42;96803.06;;;-3.67;77.86
23339;BME280;11841;49.368;20.962;2023-03-01T00:11:11;96801.31;;;-3.66;77.82
23339;BME280;11841;49.368;20.962;2023-03-01T00:13:38;96807.63;;;-3.71;78.02
23339;BME280;11841;49.368;20.962;2023-03-01T00:16:09;96801.81;;;-3.74;77.97
23339;BME280;11841;49.368;20.962;2023-03-01T00:18:37;96803.69;;;-3.76;78.02
23339;BME280;11841;49.368;20.962;2023-03-01T00:21:03;96790.00;;;-3.78;78.29
23339;BME280;11841;49.368;20.962;2023-03-01T00:23:30;96790.50;;;-3.73;78.10
23339;BME280;11841;49.368;20.962;2023-03-01T00:25:56;96794.03;;;-3.74;77.78
23339;BME280;11841;49.368;20.962;2023-03-01T00:28:23;96793.31;;;-3.76;78.22
23339;BME280;11841;49.368;20.962;2023-03-01T00:30:49;96786.59;;;-3.79;77.94
23339;BME280;11841;49.368;20.962;2023-03-01T00:33:16;96790.22;;;-3.81;78.23
23339;BME280;11841;49.368;20.962;2023-03-01T00:35:43;96781.69;;;-3.83;78.00
23339;BME280;11841;49.368;20.962;2023-03-01T00:38:09;96787.09;;;-3.86;78.12
23339;BME280;11841;49.368;20.962;2023-03-01T00:40:36;96782.03;;;-3.88;78.25
23339;BME280;11841;49.368;20.962;2023-03-01T00:43:03;96774.16;;;-3.86;78.09
23339;BME280;11841;49.368;20.962;2023-03-01T00:45:30;96771.75;;;-3.89;78.12
23339;BME280;11841;49.368;20.962;2023-03-01T00:47:57;96768.44;;;-3.91;78.00
23339;BME280;11841;49.368;20.962;2023-03-01T00:50:23;96764.38;;;-3.95;78.04
23339;BME280;11841;49.368;20.962;2023-03-01T00:52:54;96770.31;;;-3.93;78.02
23339;BME280;11841;49.368;20.962;2023-03-01T00:55:21;96766.97;;;-3.95;77.93
23339;BME280;11841;49.368;20.962;2023-03-01T00:57:47;96772.38;;;-3.98;78.17
23339;BME280;11841;49.368;20.962;2023-03-01T01:00:14;96764.81;;;-4.01;77.99
23339;BME280;11841;49.368;20.962;2023-03-01T01:02:40;96771.84;;;-4.03;77.91
23339;BME280;11841;49.368;20.962;2023-03-01T01:05:07;96767.50;;;-4.03;77.99
23339;BME280;11841;49.368;20.962;2023-03-01T01:07:34;96771.97;;;-4.05;77.80
23339;BME280;11841;49.368;20.962;2023-03-01T01:10:00;96766.16;;;-4.08;78.03
23339;BME280;11841;49.368;20.962;2023-03-01T01:12:27;96762.84;;;-4.10;78.39
23339;BME280;11841;49.368;20.962;2023-03-01T01:14:53;96765.94;;;-4.05;78.35
23339;BME280;11841;49.368;20.962;2023-03-01T01:17:20;96767.63;;;-4.04;78.02
23339;BME280;11841;49.368;20.962;2023-03-01T01:19:47;96760.97;;;-4.08;77.91
23339;BME280;11841;49.368;20.962;2023-03-01T01:22:13;96765.53;;;-4.12;77.79
23339;BME280;11841;49.368;20.962;2023-03-01T01:24:40;96759.72;;;-4.15;78.56
23339;BME280;11841;49.368;20.962;2023-03-01T01:27:06;96758.81;;;-4.14;78.36
23339;BME280;11841;49.368;20.962;2023-03-01T01:29:33;96745.84;;;-4.14;78.08
23339;BME280;11841;49.368;20.962;2023-03-01T01:31:59;96747.72;;;-4.16;78.12
23339;BME280;11841;49.368;20.962;2023-03-01T01:34:26;96748.00;;;-4.21;78.33
23339;BME280;11841;49.368;20.962;2023-03-01T01:36:53;96748.09;;;-4.22;78.22
23339;BME280;11841;49.368;20.962;2023-03-01T01:39:20;96737.75;;;-4.22;78.77
23339;BME280;11841;49.368;20.962;2023-03-01T01:41:47;96742.94;;;-4.22;78.77
23339;BME280;11841;49.368;20.962;2023-03-01T01:46:41;96744.28;;;-4.17;77.90
23339;BME280;11841;49.368;20.962;2023-03-01T01:49:15;96743.88;;;-4.23;77.97
23339;BME280;11841;49.368;20.962;2023-03-01T01:51:44;96748.09;;;-4.22;78.08
23339;BME280;11841;49.368;20.962;2023-03-01T01:54:14;96743.88;;;-4.23;77.86
23339;BME280;11841;49.368;20.962;2023-03-01T01:56:44;96739.81;;;-4.27;78.19
23339;BME280;11841;49.368;20.962;2023-03-01T01:59:14;96738.16;;;-4.28;78.08
23339;BME280;11841;49.368;20.962;2023-03-01T02:01:41;96734.84;;;-4.30;78.01
23339;BME280;11841;49.368;20.962;2023-03-01T02:04:07;96728.03;;;-4.31;78.33
23339;BME280;11841;49.368;20.962;2023-03-01T02:06:35;96723.53;;;-4.29;78.45
23339;BME280;11841;49.368;20.962;2023-03-01T02:09:08;96726.13;;;-4.29;78.40
23339;BME280;11841;49.368;20.962;2023-03-01T02:11:37;96720.88;;;-4.28;78.43
23339;BME280;11841;49.368;20.962;2023-03-01T02:14:04;96719.00;;;-4.26;77.79
23339;BME280;11841;49.368;20.962;2023-03-01T02:16:30;96720.78;;;-4.26;78.01
23339;BME280;11841;49.368;20.962;2023-03-01T02:18:57;96720.97;;;-4.29;77.98
23339;BME280;11841;49.368;20.962;2023-03-01T02:21:49;96715.19;;;-4.33;78.09
23339;BME280;11841;49.368;20.962;2023-03-01T02:26:46;96714.66;;;-4.38;77.97
23339;BME280;11841;49.368;20.962;2023-03-01T02:29:14;96721.59;;;-4.38;78.35
23339;BME280;11841;49.368;20.962;2023-03-01T02:31:41;96722.84;;;-4.31;77.86
23339;BME280;11841;49.368;20.962;2023-03-01T02:34:08;96723.75;;;-4.32;77.77
23339;BME280;11841;49.368;20.962;2023-03-01T02:36:58;96716.19;;;-4.35;77.66
23339;BME280;11841;49.368;20.962;2023-03-01T02:39:26;96719.28;;;-4.43;77.58
23339;BME280;11841;49.368;20.962;2023-03-01T02:41:55;96720.34;;;-4.45;77.90
23339;BME280;11841;49.368;20.962;2023-03-01T02:44:22;96737.41;;;-4.43;77.54
23339;BME280;11841;49.368;20.962;2023-03-01T02:46:52;96731.63;;;-4.46;77.54
23339;BME280;11841;49.368;20.962;2023-03-01T02:54:24;96736.06;;;-4.48;78.09
23339;BME280;11841;49.368;20.962;2023-03-01T02:56:53;96739.41;;;-4.46;77.37
23339;BME280;11841;49.368;20.962;2023-03-01T02:59:20;96737.94;;;-4.50;77.62
23339;BME280;11841;49.368;20.962;2023-03-01T03:01:48;96732.97;;;-4.53;77.54
23339;BME280;11841;49.368;20.962;2023-03-01T03:04:15;96726.31;;;-4.57;77.61
23339;BME280;11841;49.368;20.962;2023-03-01T03:06:44;96731.50;;;-4.57;77.76
23339;BME280;11841;49.368;20.962;2023-03-01T03:09:10;96729.22;;;-4.62;77.43
23339;BME280;11841;49.368;20.962;2023-03-01T03:11:37;96725.25;;;-4.67;77.83
23339;BME280;11841;49.368;20.962;2023-03-01T03:14:05;96716.56;;;-4.66;78.20
23339;BME280;11841;49.368;20.962;2023-03-01T03:16:32;96722.25;;;-4.61;78.46
23339;BME280;11841;49.368;20.962;2023-03-01T03:18:59;96722.41;;;-4.50;78.12
23339;BME280;11841;49.368;20.962;2023-03-01T03:21:32;96728.19;;;-4.47;77.89
23339;BME280;11841;49.368;20.962;2023-03-01T03:23:58;96731.69;;;-4.48;77.34
23339;BME280;11841;49.368;20.962;2023-03-01T03:26:25;96724.03;;;-4.49;77.71
23339;BME280;11841;49.368;20.962;2023-03-01T03:28:52;96729.44;;;-4.52;77.37
23339;BME280;11841;49.368;20.962;2023-03-01T03:31:18;96725.31;;;-4.55;77.27
23339;BME280;11841;49.368;20.962;2023-03-01T03:33:45;96728.16;;;-4.59;77.76
23339;BME280;11841;49.368;20.962;2023-03-01T03:36:15;96729.94;;;-4.60;77.92
23339;BME280;11841;49.368;20.962;2023-03-01T03:38:44;96725.47;;;-4.58;77.94
23339;BME280;11841;49.368;20.962;2023-03-01T03:41:12;96732.44;;;-4.58;77.63
23339;BME280;11841;49.368;20.962;2023-03-01T03:43:39;96727.16;;;-4.57;77.95
23339;BME280;11841;49.368;20.962;2023-03-01T03:46:06;96721.88;;;-4.55;77.48
23339;BME280;11841;49.368;20.962;2023-03-01T03:48:33;96729.63;;;-4.55;77.35
23339;BME280;11841;49.368;20.962;2023-03-01T03:51:00;96723.19;;;-4.62;77.37
23339;BME280;11841;49.368;20.962;2023-03-01T03:53:27;96724.41;;;-4.68;77.59
23339;BME280;11841;49.368;20.962;2023-03-01T03:55:54;96722.47;;;-4.64;77.57
23339;BME280;11841;49.368;20.962;2023-03-01T03:58:22;96723.59;;;-4.68;77.71
23339;BME280;11841;49.368;20.962;2023-03-01T04:00:50;96726.91;;;-4.66;77.80
23339;BME280;11841;49.368;20.962;2023-03-01T04:03:17;96724.31;;;-4.66;77.57
23339;BME280;11841;49.368;20.962;2023-03-01T04:05:45;96723.78;;;-4.71;77.32
23339;BME280;11841;49.368;20.962;2023-03-01T04:08:11;96725.84;;;-4.76;77.30
23339;BME280;11841;49.368;20.962;2023-03-01T04:10:41;96722.63;;;-4.80;77.67
23339;BME280;11841;49.368;20.962;2023-03-01T04:13:12;96720.66;;;-4.76;77.72
23339;BME280;11841;49.368;20.962;2023-03-01T04:15:39;96727.09;;;-4.82;77.28
23339;BME280;11841;49.368;20.962;2023-03-01T04:18:06;96721.91;;;-4.82;77.58
23339;BME280;11841;49.368;20.962;2023-03-01T04:20:34;96724.41;;;-4.80;77.68
23339;BME280;11841;49.368;20.962;2023-03-01T04:23:07;96724.00;;;-4.74;77.58
23339;BME280;11841;49.368;20.962;2023-03-01T04:25:40;96724.09;;;-4.76;77.08
23339;BME280;11841;49.368;20.962;2023-03-01T04:28:08;96725.09;;;-4.78;77.55
23339;BME280;11841;49.368;20.962;2023-03-01T04:30:35;96713.31;;;-4.82;77.57
23339;BME280;11841;49.368;20.962;2023-03-01T04:33:03;96718.50;;;-4.82;77.30
23339;BME280;11841;49.368;20.962;2023-03-01T04:35:30;96721.06;;;-4.82;77.38
23339;BME280;11841;49.368;20.962;2023-03-01T04:37:57;96722.81;;;-4.83;77.47
23339;BME280;11841;49.368;20.962;2023-03-01T04:40:24;96723.34;;;-4.90;77.35
23339;BME280;11841;49.368;20.962;2023-03-01T04:42:51;96721.38;;;-4.87;77.24
23339;BME280;11841;49.368;20.962;2023-03-01T04:45:17;96733.69;;;-4.90;77.65
23339;BME280;11841;49.368;20.962;2023-03-01T04:47:44;96733.06;;;-4.94;77.41
23339;BME280;11841;49.368;20.962;2023-03-01T04:50:12;96731.38;;;-4.95;77.74
23339;BME280;11841;49.368;20.962;2023-03-01T04:52:39;96733.97;;;-4.95;77.30
23339;BME280;11841;49.368;20.962;2023-03-01T04:55:06;96735.91;;;-4.99;77.31
23339;BME280;11841;49.368;20.962;2023-03-01T04:57:33;96732.41;;;-4.98;77.38
23339;BME280;11841;49.368;20.962;2023-03-01T04:59:59;96729.09;;;-5.00;77.11
23339;BME280;11841;49.368;20.962;2023-03-01T05:02:26;96713.78;;;-5.03;77.71
23339;BME280;11841;49.368;20.962;2023-03-01T05:04:52;96716.47;;;-5.04;77.41
23339;BME280;11841;49.368;20.962;2023-03-01T05:07:23;96719.75;;;-5.02;77.50
23339;BME280;11841;49.368;20.962;2023-03-01T05:09:51;96709.63;;;-5.05;77.40
23339;BME280;11841;49.368;20.962;2023-03-01T05:12:20;96707.56;;;-5.00;77.69
23339;BME280;11841;49.368;20.962;2023-03-01T05:14:46;96715.22;;;-4.99;77.62
23339;BME280;11841;49.368;20.962;2023-03-01T05:17:13;96718.34;;;-4.94;77.48
23339;BME280;11841;49.368;20.962;2023-03-01T05:19:39;96732.22;;;-4.95;77.47
23339;BME280;11841;49.368;20.962;2023-03-01T05:22:08;96727.25;;;-4.98;77.53
23339;BME280;11841;49.368;20.962;2023-03-01T05:24:35;96727.25;;;-4.98;77.58
23339;BME280;11841;49.368;20.962;2023-03-01T05:27:02;96728.69;;;-4.94;77.07
23339;BME280;11841;49.368;20.962;2023-03-01T05:29:29;96724.66;;;-4.98;77.41
23339;BME280;11841;49.368;20.962;2023-03-01T05:31:57;96723.91;;;-5.00;77.40
23339;BME280;11841;49.368;20.962;2023-03-01T05:34:24;96718.94;;;-5.03;77.57
23339;BME280;11841;49.368;20.962;2023-03-01T05:36:52;96709.63;;;-5.05;78.63
23339;BME280;11841;49.368;20.962;2023-03-01T05:39:20;96708.78;;;-5.06;78.17
23339;BME280;11841;49.368;20.962;2023-03-01T05:41:48;96711.66;;;-5.10;79.13
23339;BME280;11841;49.368;20.962;2023-03-01T05:44:18;96707.75;;;-5.03;78.74
23339;BME280;11841;49.368;20.962;2023-03-01T05:46:44;96704.16;;;-5.01;78.73
23339;BME280;11841;49.368;20.962;2023-03-01T05:49:11;96700.44;;;-4.97;78.54
23339;BME280;11841;49.368;20.962;2023-03-01T05:51:39;96704.28;;;-4.89;78.33
23339;BME280;11841;49.368;20.962;2023-03-01T05:54:06;96709.47;;;-4.89;77.84
23339;BME280;11841;49.368;20.962;2023-03-01T05:56:33;96708.94;;;-4.95;78.33
23339;BME280;11841;49.368;20.962;2023-03-01T05:59:00;96718.34;;;-4.94;78.52
23339;BME280;11841;49.368;20.962;2023-03-01T06:01:27;96712.53;;;-4.97;78.69
23339;BME280;11841;49.368;20.962;2023-03-01T06:03:54;96711.53;;;-4.95;79.04
23339;BME280;11841;49.368;20.962;2023-03-01T06:06:20;96711.13;;;-4.88;78.67
23339;BME280;11841;49.368;20.962;2023-03-01T06:08:47;96704.28;;;-4.89;78.76
23339;BME280;11841;49.368;20.962;2023-03-01T06:11:13;96704.69;;;-4.96;78.87
23339;BME280;11841;49.368;20.962;2023-03-01T06:13:41;96695.91;;;-4.93;79.26
23339;BME280;11841;49.368;20.962;2023-03-01T06:16:07;96702.66;;;-4.90;78.84
23339;BME280;11841;49.368;20.962;2023-03-01T06:18:34;96697.91;;;-4.84;79.17
23339;BME280;11841;49.368;20.962;2023-03-01T06:21:00;96708.16;;;-4.82;78.79
23339;BME280;11841;49.368;20.962;2023-03-01T06:23:27;96713.00;;;-4.78;78.93
23339;BME280;11841;49.368;20.962;2023-03-01T06:25:53;96713.66;;;-4.74;78.83
23339;BME280;11841;49.368;20.962;2023-03-01T06:28:20;96717.16;;;-4.75;79.06
23339;BME280;11841;49.368;20.962;2023-03-01T06:30:47;96723.09;;;-4.73;78.91
23339;BME280;11841;49.368;20.962;2023-03-01T06:33:13;96722.47;;;-4.64;79.00
23339;BME280;11841;49.368;20.962;2023-03-01T06:35:40;96717.53;;;-4.55;78.73
23339;BME280;11841;49.368;20.962;2023-03-01T06:38:07;96719.81;;;-4.50;79.27
23339;BME280;11841;49.368;20.962;2023-03-01T06:40:33;96705.63;;;-4.45;79.06
23339;BME280;11841;49.368;20.962;2023-03-01T06:43:01;96701.09;;;-4.41;78.85
23339;BME280;11841;49.368;20.962;2023-03-01T06:45:28;96703.16;;;-4.46;78.97
23339;BME280;11841;49.368;20.962;2023-03-01T06:48:01;96706.66;;;-4.47;79.29
23339;BME280;11841;49.368;20.962;2023-03-01T06:50:27;96716.38;;;-4.51;79.53
23339;BME280;11841;49.368;20.962;2023-03-01T06:52:56;96717.31;;;-4.52;79.69
23339;BME280;11841;49.368;20.962;2023-03-01T06:55:23;96725.94;;;-4.51;79.86
23339;BME280;11841;49.368;20.962;2023-03-01T06:57:53;96717.22;;;-4.50;80.07
23339;BME280;11841;49.368;20.962;2023-03-01T07:00:20;96718.88;;;-4.49;80.58
23339;BME280;11841;49.368;20.962;2023-03-01T07:02:47;96713.69;;;-4.49;80.70
23339;BME280;11841;49.368;20.962;2023-03-01T07:05:13;96717.00;;;-4.47;80.80
23339;BME280;11841;49.368;20.962;2023-03-01T07:07:40;96708.13;;;-4.43;80.65
23339;BME280;11841;49.368;20.962;2023-03-01T07:10:06;96714.75;;;-4.39;80.59
23339;BME280;11841;49.368;20.962;2023-03-01T07:12:33;96705.84;;;-4.35;80.95
23339;BME280;11841;49.368;20.962;2023-03-01T07:14:59;96703.78;;;-4.30;81.37
23339;BME280;11841;49.368;20.962;2023-03-01T07:17:26;96704.41;;;-4.27;81.22
23339;BME280;11841;49.368;20.962;2023-03-01T07:19:52;96703.97;;;-4.21;81.43
23339;BME280;11841;49.368;20.962;2023-03-01T07:22:19;96700.25;;;-4.17;81.47
23339;BME280;11841;49.368;20.962;2023-03-01T07:24:45;96702.53;;;-4.12;81.46
23339;BME280;11841;49.368;20.962;2023-03-01T07:27:12;96700.69;;;-4.10;81.85
23339;BME280;11841;49.368;20.962;2023-03-01T07:29:38;96693.63;;;-4.08;82.32
23339;BME280;11841;49.368;20.962;2023-03-01T07:32:05;96688.25;;;-4.05;82.35
23339;BME280;11841;49.368;20.962;2023-03-01T07:34:32;96681.81;;;-4.00;82.53
23339;BME280;11841;49.368;20.962;2023-03-01T07:36:58;96690.00;;;-3.93;82.61
23339;BME280;11841;49.368;20.962;2023-03-01T07:39:25;96693.00;;;-3.87;82.52
23339;BME280;11841;49.368;20.962;2023-03-01T07:41:51;96684.09;;;-3.83;82.93
23339;BME280;11841;49.368;20.962;2023-03-01T07:44:18;96687.41;;;-3.81;83.02
23339;BME280;11841;49.368;20.962;2023-03-01T07:46:45;96683.56;;;-3.75;83.05
23339;BME280;11841;49.368;20.962;2023-03-01T07:49:11;96677.00;;;-3.68;83.35
23339;BME280;11841;49.368;20.962;2023-03-01T07:51:38;96674.22;;;-3.65;83.54
23339;BME280;11841;49.368;20.962;2023-03-01T07:54:04;96669.53;;;-3.60;83.79
23339;BME280;11841;49.368;20.962;2023-03-01T07:56:31;96669.09;;;-3.54;83.87
23339;BME280;11841;49.368;20.962;2023-03-01T07:58:58;96667.84;;;-3.48;84.10
23339;BME280;11841;49.368;20.962;2023-03-01T08:01:25;96663.88;;;-3.41;84.17
23339;BME280;11841;49.368;20.962;2023-03-01T08:03:52;96654.63;;;-3.33;84.24
23339;BME280;11841;49.368;20.962;2023-03-01T08:06:18;96635.19;;;-3.27;84.38
23339;BME280;11841;49.368;20.962;2023-03-01T08:08:45;96635.69;;;-3.22;84.68
23339;BME280;11841;49.368;20.962;2023-03-01T08:11:12;96635.38;;;-3.18;85.36
23339;BME280;11841;49.368;20.962;2023-03-01T08:13:39;96628.06;;;-3.13;85.55
23339;BME280;11841;49.368;20.962;2023-03-01T08:16:15;96638.88;;;-2.95;87.06
23339;BME280;11841;49.368;20.962;2023-03-01T08:18:42;96640.50;;;-2.71;88.05
23339;BME280;11841;49.368;20.962;2023-03-01T08:21:10;96637.72;;;-2.57;86.98
23339;BME280;11841;49.368;20.962;2023-03-01T08:23:37;96642.19;;;-2.48;86.49
23339;BME280;11841;49.368;20.962;2023-03-01T08:26:14;96641.16;;;-2.45;86.77
23339;BME280;11841;49.368;20.962;2023-03-01T08:28:41;96638.19;;;-2.40;86.73
23339;BME280;11841;49.368;20.962;2023-03-01T08:31:21;96631.84;;;-2.36;87.49
23339;BME280;11841;49.368;20.962;2023-03-01T08:33:49;96633.16;;;-2.31;87.32
23339;BME280;11841;49.368;20.962;2023-03-01T08:36:32;96636.34;;;-2.27;87.91
23339;BME280;11841;49.368;20.962;2023-03-01T08:38:59;96637.50;;;-2.20;88.12
23339;BME280;11841;49.368;20.962;2023-03-01T08:41:26;96623.25;;;-2.15;88.33
23339;BME280;11841;49.368;20.962;2023-03-01T08:43:52;96632.34;;;-2.09;88.26
23339;BME280;11841;49.368;20.962;2023-03-01T08:46:25;96635.41;;;-2.04;88.23
23339;BME280;11841;49.368;20.962;2023-03-01T08:48:52;96626.44;;;-2.00;89.14
23339;BME280;11841;49.368;20.962;2023-03-01T08:51:19;96620.41;;;-1.90;88.88
23339;BME280;11841;49.368;20.962;2023-03-01T08:53:47;96621.47;;;-1.81;89.31
23339;BME280;11841;49.368;20.962;2023-03-01T08:56:13;96620.75;;;-1.72;89.62
23339;BME280;11841;49.368;20.962;2023-03-01T08:58:42;96620.97;;;-1.64;89.69
23339;BME280;11841;49.368;20.962;2023-03-01T09:01:13;96616.94;;;-1.57;90.47
23339;BME280;11841;49.368;20.962;2023-03-01T09:03:40;96618.72;;;-1.47;90.40
23339;BME280;11841;49.368;20.962;2023-03-01T09:06:07;96619.63;;;-1.37;90.75
23339;BME280;11841;49.368;20.962;2023-03-01T09:08:34;96619.59;;;-1.26;90.38
23339;BME280;11841;49.368;20.962;2023-03-01T09:11:04;96606.69;;;-1.16;90.80
23339;BME280;11841;49.368;20.962;2023-03-01T09:13:31;96612.09;;;-1.08;91.11
23339;BME280;11841;49.368;20.962;2023-03-01T09:15:58;96614.66;;;-0.97;90.25
23339;BME280;11841;49.368;20.962;2023-03-01T09:18:25;96596.13;;;-0.83;89.44
23339;BME280;11841;49.368;20.962;2023-03-01T09:20:51;96597.72;;;-0.71;89.30
23339;BME280;11841;49.368;20.962;2023-03-01T09:23:18;96591.63;;;-0.60;88.90
23339;BME280;11841;49.368;20.962;2023-03-01T09:25:44;96592.50;;;-0.50;88.77
23339;BME280;11841;49.368;20.962;2023-03-01T09:28:11;96595.88;;;-0.39;89.54
23339;BME280;11841;49.368;20.962;2023-03-01T09:30:57;96601.03;;;-0.28;89.86
23339;BME280;11841;49.368;20.962;2023-03-01T09:33:24;96593.09;;;-0.17;90.34
23339;BME280;11841;49.368;20.962;2023-03-01T09:35:55;96597.16;;;-0.03;89.68
23339;BME280;11841;49.368;20.962;2023-03-01T09:38:22;96590.88;;;0.09;89.17
23339;BME280;11841;49.368;20.962;2023-03-01T09:40:51;96597.53;;;0.23;87.70
23339;BME280;11841;49.368;20.962;2023-03-01T09:43:26;96592.66;;;0.39;87.21
23339;BME280;11841;49.368;20.962;2023-03-01T09:45:54;96592.94;;;0.55;87.27
23339;BME280;11841;49.368;20.962;2023-03-01T09:48:23;96585.56;;;0.69;87.13
23339;BME280;11841;49.368;20.962;2023-03-01T09:50:51;96578.16;;;0.84;86.67
23339;BME280;11841;49.368;20.962;2023-03-01T09:53:22;96584.63;;;0.99;86.86
23339;BME280;11841;49.368;20.962;2023-03-01T09:56:04;96588.47;;;1.14;85.24
23339;BME280;11841;49.368;20.962;2023-03-01T10:03:59;96572.34;;;1.66;76.26
23339;BME280;11841;49.368;20.962;2023-03-01T10:06:27;96581.06;;;1.94;75.14
23339;BME280;11841;49.368;20.962;2023-03-01T10:09:02;96574.00;;;2.04;77.54
23339;BME280;11841;49.368;20.962;2023-03-01T10:11:32;96573.13;;;2.13;77.50
23339;BME280;11841;49.368;20.962;2023-03-01T10:14:07;96564.13;;;2.25;77.23
23339;BME280;11841;49.368;20.962;2023-03-01T10:16:50;96562.81;;;2.38;77.49
23339;BME280;11841;49.368;20.962;2023-03-01T10:19:24;96561.38;;;2.54;76.81
23339;BME280;11841;49.368;20.962;2023-03-01T10:21:53;96553.97;;;2.67;74.76
23339;BME280;11841;49.368;20.962;2023-03-01T10:24:20;96557.75;;;2.82;73.93
23339;BME280;11841;49.368;20.962;2023-03-01T10:26:57;96553.25;;;2.92;71.19
23339;BME280;11841;49.368;20.962;2023-03-01T10:29:26;96553.72;;;3.05;71.96
23339;BME280;11841;49.368;20.962;2023-03-01T10:31:57;96545.59;;;3.16;73.14
23339;BME280;11841;49.368;20.962;2023-03-01T10:34:28;96539.16;;;3.28;72.84
23339;BME280;11841;49.368;20.962;2023-03-01T10:36:56;96543.50;;;3.37;67.13
23339;BME280;11841;49.368;20.962;2023-03-01T10:39:23;96535.38;;;3.48;64.67
23339;BME280;11841;49.368;20.962;2023-03-01T10:41:55;96535.97;;;3.59;65.12
23339;BME280;11841;49.368;20.962;2023-03-01T10:47:04;96526.44;;;3.84;64.95
23339;BME280;11841;49.368;20.962;2023-03-01T10:49:30;96523.56;;;3.95;61.46
23339;BME280;11841;49.368;20.962;2023-03-01T10:51:57;96519.81;;;4.06;63.83
23339;BME280;11841;49.368;20.962;2023-03-01T10:54:37;96523.00;;;4.17;61.92
23339;BME280;11841;49.368;20.962;2023-03-01T10:57:04;96517.28;;;4.30;61.09
23339;BME280;11841;49.368;20.962;2023-03-01T10:59:32;96512.22;;;4.36;55.99
23339;BME280;11841;49.368;20.962;2023-03-01T11:02:20;96513.75;;;4.47;57.62
23339;BME280;11841;49.368;20.962;2023-03-01T11:07:23;96518.38;;;4.53;49.10
23339;BME280;11841;49.368;20.962;2023-03-01T11:09:50;96514.75;;;4.54;48.98
23339;BME280;11841;49.368;20.962;2023-03-01T11:12:16;96511.81;;;4.65;46.97
23339;BME280;11841;49.368;20.962;2023-03-01T11:14:47;96501.81;;;4.68;43.64
23339;BME280;11841;49.368;20.962;2023-03-01T11:17:21;96502.34;;;4.80;45.25
23339;BME280;11841;49.368;20.962;2023-03-01T11:22:34;96502.34;;;4.88;47.02
23339;BME280;11841;49.368;20.962;2023-03-01T11:25:01;96497.75;;;4.98;48.13
23339;BME280;11841;49.368;20.962;2023-03-01T11:27:40;96493.34;;;5.07;48.36
23339;BME280;11841;49.368;20.962;2023-03-01T11:35:32;96494.00;;;5.17;45.43
23339;BME280;11841;49.368;20.962;2023-03-01T11:40:33;96484.63;;;5.06;42.94
23339;BME280;11841;49.368;20.962;2023-03-01T11:45:42;96493.97;;;5.01;43.04
23339;BME280;11841;49.368;20.962;2023-03-01T11:48:17;96491.03;;;5.04;42.72
23339;BME280;11841;49.368;20.962;2023-03-01T11:50:52;96481.50;;;5.03;41.36
23339;BME280;11841;49.368;20.962;2023-03-01T11:53:56;96485.94;;;5.10;40.10
23339;BME280;11841;49.368;20.962;2023-03-01T11:56:28;96468.38;;;5.19;43.57
23339;BME280;11841;49.368;20.962;2023-03-01T12:17:40;96460.63;;;5.33;42.28
23339;BME280;11841;49.368;20.962;2023-03-01T12:31:16;96458.78;;;5.42;45.55
23339;BME280;11841;49.368;20.962;2023-03-01T12:33:57;96458.78;;;5.42;44.79
23339;BME280;11841;49.368;20.962;2023-03-01T12:36:36;96448.28;;;5.34;43.18
23339;BME280;11841;49.368;20.962;2023-03-01T12:39:11;96445.81;;;5.40;41.88
23339;BME280;11841;49.368;20.962;2023-03-01T12:41:46;96443.69;;;5.36;40.14
23339;BME280;11841;49.368;20.962;2023-03-01T12:49:45;96431.84;;;5.40;41.71
23339;BME280;11841;49.368;20.962;2023-03-01T12:52:16;96428.56;;;5.46;39.97
23339;BME280;11841;49.368;20.962;2023-03-01T12:54:45;96428.22;;;5.49;40.34
23339;BME280;11841;49.368;20.962;2023-03-01T12:57:46;96425.72;;;5.55;41.36
23339;BME280;11841;49.368;20.962;2023-03-01T13:00:09;96425.22;;;5.68;38.55
23339;BME280;11841;49.368;20.962;2023-03-01T13:02:52;96431.78;;;5.64;38.89
23339;BME280;11841;49.368;20.962;2023-03-01T13:10:30;96429.81;;;5.66;37.89
23339;BME280;11841;49.368;20.962;2023-03-01T13:13:08;96425.25;;;5.60;37.85
23339;BME280;11841;49.368;20.962;2023-03-01T13:15:38;96428.50;;;5.62;38.23
23339;BME280;11841;49.368;20.962;2023-03-01T13:28:36;96426.88;;;5.61;38.96
23339;BME280;11841;49.368;20.962;2023-03-01T13:31:05;96422.31;;;5.55;40.31
23339;BME280;11841;49.368;20.962;2023-03-01T13:36:02;96415.38;;;5.54;38.51
23339;BME280;11841;49.368;20.962;2023-03-01T13:38:48;96424.94;;;5.47;37.13
23339;BME280;11841;49.368;20.962;2023-03-01T13:46:46;96422.47;;;5.45;35.74
23339;BME280;11841;49.368;20.962;2023-03-01T13:49:18;96422.44;;;5.53;33.84
23339;BME280;11841;49.368;20.962;2023-03-01T13:51:48;96428.84;;;5.59;34.60
23339;BME280;11841;49.368;20.962;2023-03-01T13:54:16;96434.44;;;5.56;34.32
23339;BME280;11841;49.368;20.962;2023-03-01T13:56:46;96432.97;;;5.53;35.26
23339;BME280;11841;49.368;20.962;2023-03-01T13:59:13;96422.63;;;5.52;35.97
23339;BME280;11841;49.368;20.962;2023-03-01T14:01:40;96423.78;;;5.49;36.87
23339;BME280;11841;49.368;20.962;2023-03-01T14:04:28;96417.19;;;5.53;37.34
23339;BME280;11841;49.368;20.962;2023-03-01T14:07:16;96417.34;;;5.52;38.08
23339;BME280;11841;49.368;20.962;2023-03-01T14:09:44;96420.50;;;5.47;39.39
23339;BME280;11841;49.368;20.962;2023-03-01T14:15:22;96414.91;;;5.50;40.09
23339;BME280;11841;49.368;20.962;2023-03-01T14:20:25;96406.50;;;5.47;39.69
23339;BME280;11841;49.368;20.962;2023-03-01T14:22:53;96409.84;;;5.41;39.76
23339;BME280;11841;49.368;20.962;2023-03-01T14:25:28;96400.97;;;5.34;40.34
23339;BME280;11841;49.368;20.962;2023-03-01T14:27:58;96407.84;;;5.35;40.57
23339;BME280;11841;49.368;20.962;2023-03-01T14:30:26;96409.19;;;5.31;39.65
23339;BME280;11841;49.368;20.962;2023-03-01T14:32:55;96405.59;;;5.24;40.48
23339;BME280;11841;49.368;20.962;2023-03-01T14:35:24;96414.44;;;5.23;41.39
23339;BME280;11841;49.368;20.962;2023-03-01T14:37:50;96398.38;;;5.26;41.43
23339;BME280;11841;49.368;20.962;2023-03-01T14:40:21;96408.72;;;5.27;41.90